createdAt,value
2022-12-20T00:00:51.637Z,26.63
2022-12-20T00:03:19.758Z,32.07
2022-12-20T00:05:46.560Z,30.87
2022-12-20T00:08:13.011Z,29.70
2022-12-20T00:10:41.856Z,31.10
2022-12-20T00:13:09.192Z,32.87
2022-12-20T00:15:35.711Z,28.47
2022-12-20T00:18:02.562Z,29.93
2022-12-20T00:20:29.106Z,28.10
2022-12-20T00:22:55.660Z,29.60
2022-12-20T00:25:22.453Z,27.90
2022-12-20T00:27:49.565Z,27.87
2022-12-20T00:30:16.406Z,27.03
2022-12-20T00:32:44.318Z,29.63
2022-12-20T00:35:11.859Z,27.83
2022-12-20T00:37:38.680Z,28.10
2022-12-20T00:40:06.258Z,30.20
2022-12-20T00:42:32.780Z,27.43
2022-12-20T00:44:58.938Z,26.10
2022-12-20T00:47:25.348Z,28.33
2022-12-20T00:49:51.443Z,27.20
2022-12-20T00:52:17.822Z,24.27
2022-12-20T00:54:43.869Z,25.33
2022-12-20T00:57:10.400Z,30.10
2022-12-20T00:59:36.465Z,27.80
2022-12-20T01:02:03.064Z,27.57
2022-12-20T01:04:29.284Z,26.23
2022-12-20T01:06:55.682Z,28.10
2022-12-20T01:09:22.954Z,26.57
2022-12-20T01:11:49.439Z,24.23
2022-12-20T01:14:16.284Z,32.03
2022-12-20T01:16:46.045Z,25.27
2022-12-20T01:19:15.982Z,26.23
2022-12-20T01:21:45.843Z,25.73
2022-12-20T01:24:14.217Z,24.83
2022-12-20T01:26:41.092Z,26.53
2022-12-20T01:29:07.287Z,25.27
2022-12-20T01:31:33.992Z,28.27
2022-12-20T01:34:00.261Z,28.60
2022-12-20T01:36:32.905Z,26.57
2022-12-20T01:39:03.189Z,26.23
2022-12-20T01:41:30.751Z,25.07
2022-12-20T01:44:01.038Z,25.70
2022-12-20T01:46:33.055Z,26.37
2022-12-20T01:49:12.280Z,27.13
2022-12-20T01:51:46.787Z,27.33
2022-12-20T01:54:24.716Z,26.47
2022-12-20T01:56:58.057Z,35.23
2022-12-20T01:59:25.650Z,24.30
2022-12-20T02:01:52.260Z,26.83
2022-12-20T02:04:18.403Z,26.63
2022-12-20T02:06:44.834Z,24.20
2022-12-20T02:09:11.794Z,21.70
2022-12-20T02:11:56.544Z,29.30
2022-12-20T02:14:37.542Z,24.80
2022-12-20T02:17:28.057Z,26.43
2022-12-20T02:20:15.245Z,31.23
2022-12-20T02:22:51.720Z,26.07
2022-12-20T02:25:49.428Z,25.37
2022-12-20T02:28:44.466Z,20.93
2022-12-20T02:31:16.625Z,23.40
2022-12-20T02:33:47.249Z,23.27
2022-12-20T02:36:17.358Z,25.87
2022-12-20T02:38:44.983Z,26.07
2022-12-20T02:41:34.426Z,26.80
2022-12-20T02:44:25.356Z,24.77
2022-12-20T02:46:53.113Z,24.73
2022-12-20T02:49:24.463Z,27.10
2022-12-20T02:51:54.230Z,27.03
2022-12-20T02:54:21.449Z,23.53
2022-12-20T02:57:04.766Z,24.17
2022-12-20T02:59:35.542Z,27.80
2022-12-20T03:02:02.969Z,23.40
2022-12-20T03:04:34.045Z,25.90
2022-12-20T03:07:04.774Z,29.07
2022-12-20T03:09:33.265Z,21.57
2022-12-20T03:11:59.495Z,23.90
2022-12-20T03:14:26.708Z,24.93
2022-12-20T03:16:55.655Z,24.30
2022-12-20T03:19:22.616Z,22.27
2022-12-20T03:21:48.742Z,26.60
2022-12-20T03:24:15.561Z,24.23
2022-12-20T03:26:42.729Z,24.70
2022-12-20T03:29:09.830Z,24.60
2022-12-20T03:31:36.291Z,27.30
2022-12-20T03:34:04.138Z,20.20
2022-12-20T03:36:30.708Z,28.23
2022-12-20T03:39:01.319Z,27.47
2022-12-20T03:41:30.925Z,24.43
2022-12-20T03:43:57.271Z,25.63
2022-12-20T03:46:25.023Z,24.40
2022-12-20T03:48:52.944Z,20.27
2022-12-20T03:51:19.030Z,22.33
2022-12-20T03:53:45.501Z,26.00
2022-12-20T03:56:13.321Z,20.70
2022-12-20T03:58:41.945Z,23.73
2022-12-20T04:01:23.001Z,23.97
2022-12-20T04:03:50.329Z,24.80
2022-12-20T04:06:17.229Z,22.63
2022-12-20T04:08:44.803Z,21.37
2022-12-20T04:11:15.782Z,23.37
2022-12-20T04:13:53.174Z,22.20
2022-12-20T04:16:22.499Z,22.37
2022-12-20T04:18:49.446Z,24.13
2022-12-20T04:21:22.072Z,21.17
2022-12-20T04:23:48.655Z,22.93
2022-12-20T04:26:16.107Z,20.93
2022-12-20T04:28:42.624Z,20.80
2022-12-20T04:31:10.340Z,20.97
2022-12-20T04:33:38.706Z,22.27
2022-12-20T04:36:05.649Z,22.70
2022-12-20T04:38:34.077Z,20.97
2022-12-20T04:41:00.255Z,19.63
2022-12-20T04:43:31.614Z,20.40
2022-12-20T04:45:59.316Z,22.07
2022-12-20T04:51:13.425Z,22.93
2022-12-20T04:53:49.301Z,24.40
2022-12-20T04:56:33.735Z,23.03
2022-12-20T04:59:06.184Z,21.50
2022-12-20T05:01:33.306Z,22.63
2022-12-20T05:03:59.889Z,22.07
2022-12-20T05:06:30.071Z,23.43
2022-12-20T05:08:56.737Z,23.33
2022-12-20T05:11:24.078Z,25.43
2022-12-20T05:13:50.801Z,23.93
2022-12-20T05:16:19.772Z,21.07
2022-12-20T05:18:49.199Z,23.83
2022-12-20T05:21:34.760Z,19.97
2022-12-20T05:24:22.396Z,22.13
2022-12-20T05:26:56.671Z,23.87
2022-12-20T05:29:23.068Z,26.13
2022-12-20T05:31:49.761Z,21.37
2022-12-20T05:34:16.608Z,25.30
2022-12-20T05:36:47.845Z,22.03
2022-12-20T05:39:14.344Z,21.07
2022-12-20T05:41:42.536Z,25.70
2022-12-20T05:44:10.211Z,22.17
2022-12-20T05:46:40.168Z,23.10
2022-12-20T05:49:11.562Z,23.67
2022-12-20T05:51:37.819Z,22.03
2022-12-20T05:54:24.617Z,19.20
2022-12-20T05:56:57.305Z,26.37
2022-12-20T05:59:32.405Z,20.73
2022-12-20T06:01:58.672Z,20.27
2022-12-20T06:04:25.661Z,22.03
2022-12-20T06:06:52.233Z,22.77
2022-12-20T06:09:19.629Z,21.10
2022-12-20T06:12:07.098Z,21.00
2022-12-20T06:14:34.411Z,22.73
2022-12-20T06:17:02.049Z,23.03
2022-12-20T06:19:30.080Z,19.70
2022-12-20T06:22:00.173Z,24.43
2022-12-20T06:24:36.043Z,30.77
2022-12-20T06:27:02.854Z,23.77
2022-12-20T06:29:29.836Z,23.00
2022-12-20T06:32:04.721Z,21.13
2022-12-20T06:34:32.086Z,23.17
2022-12-20T06:36:58.638Z,27.07
2022-12-20T06:39:28.709Z,45.30
2022-12-20T06:42:06.339Z,25.83
2022-12-20T06:44:35.032Z,22.60
2022-12-20T06:47:01.672Z,23.53
2022-12-20T06:49:28.179Z,22.27
2022-12-20T06:51:55.655Z,21.57
2022-12-20T06:54:28.283Z,31.57
2022-12-20T06:56:54.504Z,27.67
2022-12-20T06:59:20.903Z,46.50
2022-12-20T07:01:47.349Z,40.63
2022-12-20T07:04:14.150Z,74.97
2022-12-20T07:06:40.330Z,99.57
2022-12-20T07:09:08.460Z,74.37
2022-12-20T07:11:34.993Z,71.47
2022-12-20T07:14:57.726Z,48.90
2022-12-20T07:17:42.313Z,39.07
2022-12-20T07:20:13.184Z,42.20
2022-12-20T07:23:23.730Z,31.93
2022-12-20T07:25:54.835Z,33.87
2022-12-20T07:28:21.724Z,31.07
2022-12-20T07:30:48.032Z,24.83
2022-12-20T07:33:14.163Z,28.70
2022-12-20T07:35:40.528Z,24.37
2022-12-20T07:38:06.629Z,25.47
2022-12-20T07:40:33.132Z,23.93
2022-12-20T07:42:59.357Z,23.33
2022-12-20T07:45:26.468Z,26.23
2022-12-20T07:47:53.643Z,25.10
2022-12-20T07:50:20.879Z,25.20
2022-12-20T07:52:49.161Z,32.43
2022-12-20T07:55:16.290Z,29.63
2022-12-20T07:57:52.381Z,25.30
2022-12-20T08:00:19.505Z,25.73
2022-12-20T08:02:54.780Z,26.53
2022-12-20T08:05:23.848Z,42.00
2022-12-20T08:07:55.205Z,27.87
2022-12-20T08:10:26.288Z,25.30
2022-12-20T08:12:52.535Z,27.83
2022-12-20T08:15:21.489Z,24.97
2022-12-20T08:17:48.448Z,23.50
2022-12-20T08:20:15.051Z,26.87
2022-12-20T08:22:41.152Z,25.03
2022-12-20T08:25:08.170Z,30.87
2022-12-20T08:27:34.405Z,29.97
2022-12-20T08:30:01.175Z,29.93
2022-12-20T08:32:28.786Z,23.27
2022-12-20T08:34:55.392Z,23.77
2022-12-20T08:37:21.667Z,27.63
2022-12-20T08:39:48.020Z,30.60
2022-12-20T08:42:14.225Z,29.80
2022-12-20T08:44:40.827Z,40.03
2022-12-20T08:47:06.971Z,27.40
2022-12-20T08:49:34.001Z,26.70
2022-12-20T08:52:00.126Z,32.03
2022-12-20T08:54:26.594Z,49.83
2022-12-20T08:56:52.696Z,32.30
2022-12-20T08:59:19.158Z,32.70
2022-12-20T09:01:45.379Z,27.43
2022-12-20T09:04:12.323Z,32.37
2022-12-20T09:06:38.578Z,29.33
2022-12-20T09:09:06.333Z,34.40
2022-12-20T09:11:33.245Z,33.20
2022-12-20T09:13:59.980Z,28.40
2022-12-20T09:16:29.536Z,27.97
2022-12-20T09:19:04.366Z,28.77
2022-12-20T09:21:32.863Z,26.47
2022-12-20T09:23:59.479Z,29.03
2022-12-20T09:26:25.959Z,29.77
2022-12-20T09:28:53.286Z,31.40
2022-12-20T09:31:22.257Z,28.97
2022-12-20T09:33:49.627Z,28.37
2022-12-20T09:36:18.710Z,28.83
2022-12-20T09:38:46.340Z,34.77
2022-12-20T09:41:28.075Z,31.40
2022-12-20T09:43:55.423Z,33.57
2022-12-20T09:46:24.181Z,31.70
2022-12-20T09:48:52.975Z,31.10
2022-12-20T09:51:25.527Z,33.47
2022-12-20T09:54:26.017Z,30.90
2022-12-20T09:57:19.639Z,32.47
2022-12-20T09:59:49.873Z,33.57
2022-12-20T10:05:40.853Z,31.50
2022-12-20T10:08:32.577Z,29.90
2022-12-20T10:11:12.337Z,33.00
2022-12-20T10:13:59.538Z,31.87
2022-12-20T10:16:38.314Z,28.70
2022-12-20T10:19:42.713Z,35.00
2022-12-20T10:22:17.003Z,31.03
2022-12-20T10:25:06.150Z,34.47
2022-12-20T10:27:37.173Z,32.07
2022-12-20T10:30:10.465Z,29.07
2022-12-20T10:32:37.148Z,29.73
2022-12-20T10:35:09.105Z,34.63
2022-12-20T10:37:35.973Z,29.73
2022-12-20T10:40:07.349Z,29.83
2022-12-20T10:42:38.822Z,34.63
2022-12-20T10:45:14.259Z,35.57
2022-12-20T10:47:44.796Z,33.80
2022-12-20T10:50:16.927Z,37.47
2022-12-20T10:52:44.466Z,35.53
2022-12-20T10:55:32.688Z,40.67
2022-12-20T10:58:03.381Z,43.37
2022-12-20T11:00:31.636Z,39.80
2022-12-20T11:03:38.682Z,33.93
2022-12-20T11:06:15.731Z,33.87
2022-12-20T11:08:51.295Z,34.47
2022-12-20T11:11:24.297Z,32.93
2022-12-20T11:13:51.529Z,30.77
2022-12-20T11:16:36.143Z,30.47
2022-12-20T11:19:27.024Z,34.03
2022-12-20T11:22:13.342Z,31.83
2022-12-20T11:24:52.888Z,36.10
2022-12-20T11:27:24.109Z,30.47
2022-12-20T11:29:59.464Z,30.77
2022-12-20T11:32:48.702Z,32.77
2022-12-20T11:35:46.375Z,32.87
2022-12-20T11:38:30.796Z,29.27
2022-12-20T11:41:18.008Z,33.70
2022-12-20T11:44:25.344Z,30.17
2022-12-20T11:46:55.942Z,27.40
2022-12-20T11:49:33.982Z,33.13
2022-12-20T11:52:38.423Z,30.50
2022-12-20T11:55:19.872Z,29.47
2022-12-20T11:58:18.476Z,28.73
2022-12-20T12:00:44.191Z,32.03
2022-12-20T12:03:24.686Z,44.20
2022-12-20T12:05:55.927Z,35.53
2022-12-20T12:08:38.504Z,35.90
2022-12-20T12:14:22.119Z,34.13
2022-12-20T12:16:53.142Z,34.93
2022-12-20T12:19:20.587Z,37.53
2022-12-20T12:21:55.545Z,37.97
2022-12-20T12:24:32.137Z,38.40
2022-12-20T12:26:59.158Z,36.00
2022-12-20T12:29:29.016Z,37.33
2022-12-20T12:31:58.008Z,44.97
2022-12-20T12:34:46.892Z,43.07
2022-12-20T12:37:34.407Z,46.17
2022-12-20T12:40:28.716Z,47.63
2022-12-20T12:43:13.167Z,60.03
2022-12-20T12:45:47.555Z,59.67
2022-12-20T12:48:22.781Z,52.17
2022-12-20T12:50:53.516Z,43.57
2022-12-20T12:53:26.773Z,49.90
2022-12-20T12:56:07.273Z,42.53
2022-12-20T12:58:34.523Z,40.23
2022-12-20T13:01:08.992Z,41.93
2022-12-20T13:03:40.385Z,43.10
2022-12-20T13:06:35.803Z,41.57
2022-12-20T13:09:02.620Z,46.90
2022-12-20T13:11:46.329Z,45.30
2022-12-20T13:14:16.596Z,45.70
2022-12-20T13:19:36.243Z,49.47
2022-12-20T13:22:05.734Z,39.83
2022-12-20T13:24:57.190Z,45.97
2022-12-20T13:27:34.204Z,43.27
2022-12-20T13:30:06.616Z,48.30
2022-12-20T13:32:48.762Z,58.23
2022-12-20T13:35:24.652Z,72.03
2022-12-20T13:38:01.301Z,62.33
2022-12-20T13:40:56.646Z,88.73
2022-12-20T13:43:27.353Z,69.67
2022-12-20T13:46:09.165Z,64.33
2022-12-20T13:48:46.303Z,48.70
2022-12-20T13:51:18.927Z,51.20
2022-12-20T13:54:08.012Z,48.13
2022-12-20T13:56:40.608Z,45.13
2022-12-20T13:59:14.787Z,54.10
2022-12-20T14:01:53.496Z,49.33
2022-12-20T14:04:21.200Z,52.87
2022-12-20T14:06:58.917Z,52.93
2022-12-20T14:09:37.405Z,52.00
2022-12-20T14:12:07.194Z,47.57
2022-12-20T14:14:41.843Z,39.93
2022-12-20T14:17:30.564Z,39.67
2022-12-20T14:20:06.649Z,40.80
2022-12-20T14:22:34.208Z,43.97
2022-12-20T14:25:05.062Z,45.83
2022-12-20T14:27:35.551Z,48.77
2022-12-20T14:30:05.030Z,50.83
2022-12-20T14:32:31.842Z,48.83
2022-12-20T14:34:58.972Z,52.97
2022-12-20T14:37:31.556Z,48.07
2022-12-20T14:40:09.067Z,46.60
2022-12-20T14:42:38.495Z,42.77
2022-12-20T14:45:15.336Z,45.23
2022-12-20T14:48:05.052Z,68.93
2022-12-20T14:50:35.370Z,65.87
2022-12-20T14:53:02.815Z,52.73
2022-12-20T14:55:44.816Z,54.00
2022-12-20T14:58:34.286Z,47.93
2022-12-20T15:01:31.838Z,53.47
2022-12-20T15:03:59.894Z,56.70
2022-12-20T15:06:51.833Z,62.50
2022-12-20T15:09:19.011Z,66.17
2022-12-20T15:11:47.189Z,88.57
2022-12-20T15:14:22.371Z,65.90
2022-12-20T15:16:49.660Z,52.37
2022-12-20T15:19:16.414Z,52.03
2022-12-20T15:21:44.581Z,50.90
2022-12-20T15:24:14.739Z,47.50
2022-12-20T15:26:41.978Z,60.00
2022-12-20T15:29:24.198Z,45.53
2022-12-20T15:32:03.394Z,48.43
2022-12-20T15:34:35.397Z,41.50
2022-12-20T15:37:04.346Z,44.00
2022-12-20T15:39:32.585Z,38.93
2022-12-20T15:42:03.096Z,42.00
2022-12-20T15:44:31.060Z,44.23
2022-12-20T15:46:57.931Z,45.10
2022-12-20T15:49:31.633Z,48.27
2022-12-20T15:51:59.082Z,45.57
2022-12-20T15:54:27.052Z,46.83
2022-12-20T15:56:55.341Z,44.07
2022-12-20T15:59:58.351Z,42.00
2022-12-20T16:02:23.883Z,39.67
2022-12-20T16:04:51.730Z,42.17
2022-12-20T16:07:18.936Z,42.23
2022-12-20T16:09:45.483Z,45.60
2022-12-20T16:12:24.106Z,48.27
2022-12-20T16:14:51.026Z,43.47
2022-12-20T16:17:18.162Z,42.77
2022-12-20T16:19:45.478Z,38.87
2022-12-20T16:22:17.615Z,48.73
2022-12-20T16:24:45.391Z,56.37
2022-12-20T16:27:12.463Z,64.83
2022-12-20T16:29:40.679Z,67.97
2022-12-20T16:32:18.956Z,65.63
2022-12-20T16:34:46.103Z,79.30
2022-12-20T16:37:13.337Z,72.10
2022-12-20T16:39:40.881Z,61.80
2022-12-20T16:42:16.401Z,64.87
2022-12-20T16:44:44.159Z,61.23
2022-12-20T16:47:11.371Z,55.30
2022-12-20T16:49:37.882Z,56.00
2022-12-20T16:52:06.068Z,60.50
2022-12-20T16:54:32.982Z,55.23
2022-12-20T16:56:59.883Z,41.83
2022-12-20T16:59:26.316Z,51.23
2022-12-20T17:01:56.364Z,51.97
2022-12-20T17:04:26.104Z,54.13
2022-12-20T17:06:52.956Z,48.50
2022-12-20T17:12:13.478Z,62.13
2022-12-20T17:14:39.874Z,54.03
2022-12-20T17:17:07.060Z,59.60
2022-12-20T17:19:33.489Z,61.43
2022-12-20T17:24:44.944Z,47.83
2022-12-20T17:27:11.543Z,46.37
2022-12-20T17:29:37.909Z,49.07
2022-12-20T17:32:18.952Z,45.47
2022-12-20T17:34:45.780Z,49.07
2022-12-20T17:37:12.291Z,48.57
2022-12-20T17:39:38.803Z,72.90
2022-12-20T17:42:05.379Z,47.50
2022-12-20T17:44:31.717Z,55.20
2022-12-20T17:46:58.443Z,56.87
2022-12-20T17:49:24.966Z,60.83
2022-12-20T17:51:52.265Z,54.77
2022-12-20T17:54:28.049Z,51.47
2022-12-20T17:56:56.739Z,61.33
2022-12-20T17:59:25.069Z,53.90
2022-12-20T18:01:51.829Z,52.00
2022-12-20T18:04:18.580Z,61.43
2022-12-20T18:06:45.995Z,57.87
2022-12-20T18:09:18.229Z,55.03
2022-12-20T18:11:46.545Z,56.57
2022-12-20T18:14:13.400Z,55.33
2022-12-20T18:16:41.088Z,46.30
2022-12-20T18:19:13.885Z,55.00
2022-12-20T18:21:41.084Z,54.17
2022-12-20T18:24:10.596Z,43.97
2022-12-20T18:26:37.247Z,42.80
2022-12-20T18:29:03.581Z,40.47
2022-12-20T18:31:33.244Z,38.30
2022-12-20T18:34:00.560Z,36.50
2022-12-20T18:36:30.163Z,49.70
2022-12-20T18:38:58.269Z,40.67
2022-12-20T18:41:27.376Z,43.10
2022-12-20T18:43:59.581Z,46.87
2022-12-20T18:46:27.297Z,43.93
2022-12-20T18:48:57.729Z,38.33
2022-12-20T18:51:27.817Z,39.97
2022-12-20T18:53:56.490Z,38.50
2022-12-20T18:56:27.919Z,43.90
2022-12-20T18:58:56.558Z,38.37
2022-12-20T19:01:29.965Z,46.87
2022-12-20T19:03:58.722Z,35.40
2022-12-20T19:06:26.503Z,44.93
2022-12-20T19:08:52.826Z,40.77
2022-12-20T19:11:22.890Z,43.10
2022-12-20T19:13:50.633Z,41.60
2022-12-20T19:16:23.603Z,42.80
2022-12-20T19:18:50.909Z,41.07
2022-12-20T19:21:24.038Z,38.90
2022-12-20T19:23:55.213Z,41.60
2022-12-20T19:26:26.684Z,42.50
2022-12-20T19:28:54.044Z,39.87
2022-12-20T19:31:23.694Z,42.27
2022-12-20T19:33:56.239Z,53.03
2022-12-20T19:36:34.717Z,37.97
2022-12-20T19:39:02.838Z,56.53
2022-12-20T19:41:31.975Z,40.27
2022-12-20T19:43:58.952Z,39.97
2022-12-20T19:46:29.298Z,37.60
2022-12-20T19:48:58.737Z,34.70
2022-12-20T19:51:26.974Z,47.73
2022-12-20T19:53:54.288Z,37.20
2022-12-20T19:56:24.574Z,38.83
2022-12-20T19:58:52.036Z,39.67
2022-12-20T20:01:20.579Z,39.43
2022-12-20T20:03:47.172Z,45.57
2022-12-20T20:06:14.151Z,34.57
2022-12-20T20:08:40.931Z,37.10
2022-12-20T20:11:10.238Z,36.43
2022-12-20T20:13:38.311Z,41.13
2022-12-20T20:16:06.709Z,38.33
2022-12-20T20:18:35.198Z,39.63
2022-12-20T20:21:11.801Z,35.07
2022-12-20T20:23:39.147Z,36.07
2022-12-20T20:26:09.340Z,36.07
2022-12-20T20:28:43.732Z,38.73
2022-12-20T20:31:14.191Z,42.93
2022-12-20T20:33:41.276Z,36.63
2022-12-20T20:36:12.481Z,41.27
2022-12-20T20:38:39.360Z,36.00
2022-12-20T20:41:06.055Z,37.93
2022-12-20T20:43:36.153Z,38.27
2022-12-20T20:46:03.863Z,38.67
2022-12-20T20:48:31.267Z,35.40
2022-12-20T20:50:58.672Z,39.77
2022-12-20T20:53:32.709Z,41.87
2022-12-20T20:56:05.044Z,35.97
2022-12-20T20:58:32.338Z,36.70
2022-12-20T21:01:04.092Z,35.07
2022-12-20T21:03:31.274Z,30.93
2022-12-20T21:08:44.577Z,37.07
2022-12-20T21:11:11.795Z,35.07
2022-12-20T21:13:38.635Z,33.27
2022-12-20T21:16:11.550Z,38.67
2022-12-20T21:18:38.051Z,31.80
2022-12-20T21:21:09.903Z,33.83
2022-12-20T21:23:37.546Z,40.97
2022-12-20T21:26:04.636Z,35.57
2022-12-20T21:28:31.364Z,35.80
2022-12-20T21:31:02.780Z,46.27
2022-12-20T21:33:29.396Z,35.93
2022-12-20T21:36:04.629Z,37.20
2022-12-20T21:38:31.135Z,34.07
2022-12-20T21:41:11.240Z,35.73
2022-12-20T21:43:37.628Z,34.80
2022-12-20T21:46:04.981Z,36.30
2022-12-20T21:48:31.542Z,39.00
2022-12-20T21:51:09.330Z,41.20
2022-12-20T21:53:40.770Z,40.90
2022-12-20T21:56:08.135Z,37.77
2022-12-20T21:58:35.065Z,35.10
2022-12-20T22:01:04.447Z,39.57
2022-12-20T22:03:31.601Z,47.70
2022-12-20T22:06:00.224Z,42.90
2022-12-20T22:08:27.759Z,39.53
2022-12-20T22:11:11.786Z,40.73
2022-12-20T22:13:41.969Z,41.93
2022-12-20T22:16:14.554Z,37.17
2022-12-20T22:18:42.127Z,34.50
2022-12-20T22:21:11.818Z,38.67
2022-12-20T22:23:39.093Z,39.67
2022-12-20T22:26:08.795Z,41.77
2022-12-20T22:28:35.879Z,43.67
2022-12-20T22:31:07.628Z,43.57
2022-12-20T22:33:34.331Z,37.43
2022-12-20T22:36:01.445Z,36.83
2022-12-20T22:38:27.897Z,37.63
2022-12-20T22:40:58.136Z,38.50
2022-12-20T22:43:25.339Z,40.90
2022-12-20T22:45:58.628Z,40.83
2022-12-20T22:48:25.929Z,43.03
2022-12-20T22:51:00.376Z,40.27
2022-12-20T22:53:26.944Z,43.33
2022-12-20T22:55:53.994Z,39.40
2022-12-20T22:58:20.787Z,36.10
2022-12-20T23:00:50.117Z,37.40
2022-12-20T23:03:16.409Z,36.50
2022-12-20T23:05:51.874Z,49.10
2022-12-20T23:08:18.831Z,39.20
2022-12-20T23:11:03.981Z,40.07
2022-12-20T23:13:48.988Z,39.10
2022-12-20T23:16:15.941Z,38.60
2022-12-20T23:18:42.521Z,40.23
2022-12-20T23:21:27.918Z,37.93
2022-12-20T23:23:56.127Z,37.03
2022-12-20T23:26:22.923Z,36.90
2022-12-20T23:28:49.169Z,34.97
2022-12-20T23:31:15.761Z,43.20
2022-12-20T23:33:43.893Z,42.53
2022-12-20T23:36:10.929Z,36.83
2022-12-20T23:38:37.465Z,37.53
2022-12-20T23:41:08.954Z,35.80
2022-12-20T23:43:35.453Z,34.03
2022-12-20T23:46:08.727Z,36.13
2022-12-20T23:48:35.205Z,32.90
2022-12-20T23:51:01.918Z,35.87
2022-12-20T23:53:28.824Z,35.83
2022-12-20T23:56:05.142Z,36.63
2022-12-20T23:58:31.896Z,30.60
